Time,TemperatureF,DewpointF,PressureIn,WindDirection,WindDirectionDegrees,WindSpeedMPH,WindSpeedGustMPH,Humidity,HourlyPrecipIn,Conditions,Clouds,dailyrainin,SoftwareType,DateUTC
2013-01-04 00:07:00,47.5,37.8,30.12,North,0,0.0,-999.0,69,0.00,,,0.00,open2300 v1.10,2013-01-04 08:07:00,
2013-01-04 00:21:00,47.5,37.8,30.13,North,0,0.0,-999.0,69,0.00,,,0.00,open2300 v1.10,2013-01-04 08:21:00,
2013-01-04 00:36:00,47.1,37.5,30.12,North,0,0.0,-999.0,69,0.00,,,0.00,open2300 v1.10,2013-01-04 08:36:00,
2013-01-04 00:51:00,47.1,37.5,30.13,North,0,0.0,-999.0,69,0.00,,,0.00,open2300 v1.10,2013-01-04 08:51:00,
2013-01-04 01:07:00,47.1,37.5,30.13,North,0,0.0,-999.0,69,0.00,,,0.00,open2300 v1.10,2013-01-04 09:07:00,
2013-01-04 01:21:00,47.1,37.9,30.12,North,0,0.0,-999.0,70,0.00,,,0.00,open2300 v1.10,2013-01-04 09:21:00,
2013-01-04 01:36:00,47.1,37.5,30.12,North,0,0.0,-999.0,69,0.00,,,0.00,open2300 v1.10,2013-01-04 09:36:00,
2013-01-04 01:51:00,46.9,37.7,30.13,North,0,0.0,-999.0,70,0.00,,,0.00,open2300 v1.10,2013-01-04 09:51:00,
2013-01-04 02:07:00,46.9,37.7,30.12,North,0,0.0,-999.0,70,0.00,,,0.00,open2300 v1.10,2013-01-04 10:07:00,
2013-01-04 02:21:00,46.6,37.7,30.12,North,0,0.0,-999.0,71,0.00,,,0.00,open2300 v1.10,2013-01-04 10:21:00,
2013-01-04 02:36:00,46.6,38.1,30.13,North,0,0.0,-999.0,72,0.00,,,0.00,open2300 v1.10,2013-01-04 10:36:00,
2013-01-04 02:51:00,46.2,37.4,30.13,North,0,0.0,-999.0,71,0.00,,,0.00,open2300 v1.10,2013-01-04 10:51:00,
2013-01-04 03:07:00,46.2,37.4,30.13,North,0,0.0,-999.0,71,0.00,,,0.00,open2300 v1.10,2013-01-04 11:07:00,
2013-01-04 03:21:00,46.2,37.4,30.13,North,0,0.0,-999.0,71,0.00,,,0.00,open2300 v1.10,2013-01-04 11:21:00,
2013-01-04 03:36:00,46.2,37.4,30.13,North,0,0.0,-999.0,71,0.00,,,0.00,open2300 v1.10,2013-01-04 11:36:00,
2013-01-04 03:51:00,46.0,37.2,30.12,North,0,0.0,-999.0,71,0.00,,,0.00,open2300 v1.10,2013-01-04 11:51:00,
2013-01-04 04:07:00,46.0,37.5,30.12,North,0,0.0,-999.0,72,0.00,,,0.00,open2300 v1.10,2013-01-04 12:07:00,
2013-01-04 04:21:00,46.0,37.5,30.12,North,0,0.0,-999.0,72,0.00,,,0.00,open2300 v1.10,2013-01-04 12:21:00,
2013-01-04 04:36:00,46.0,37.5,30.11,North,0,0.0,-999.0,72,0.00,,,0.00,open2300 v1.10,2013-01-04 12:36:00,
2013-01-04 04:51:00,46.2,37.7,30.11,North,0,0.0,-999.0,72,0.00,,,0.00,open2300 v1.10,2013-01-04 12:51:00,
2013-01-04 05:07:00,46.2,37.7,30.12,North,0,0.0,-999.0,72,0.00,,,0.00,open2300 v1.10,2013-01-04 13:07:00,
2013-01-04 05:21:00,46.2,37.4,30.12,North,0,0.0,-999.0,71,0.00,,,0.00,open2300 v1.10,2013-01-04 13:21:00,
2013-01-04 05:36:00,46.4,37.9,30.13,North,0,0.0,-999.0,72,0.00,,,0.00,open2300 v1.10,2013-01-04 13:36:00,
2013-01-04 05:51:00,46.2,37.4,30.13,North,0,0.0,-999.0,71,0.00,,,0.00,open2300 v1.10,2013-01-04 13:51:00,
2013-01-04 06:07:00,46.2,37.4,30.13,North,0,0.0,-999.0,71,0.00,,,0.00,open2300 v1.10,2013-01-04 14:07:00,
2013-01-04 06:21:00,46.0,37.5,30.13,North,0,0.0,-999.0,72,0.00,,,0.00,open2300 v1.10,2013-01-04 14:21:00,
2013-01-04 06:36:00,45.7,37.5,30.13,North,0,0.0,-999.0,73,0.00,,,0.00,open2300 v1.10,2013-01-04 14:36:00,
2013-01-04 06:51:00,45.3,37.2,30.13,North,0,0.0,-999.0,73,0.00,,,0.00,open2300 v1.10,2013-01-04 14:51:00,
2013-01-04 07:06:00,45.3,37.5,30.13,North,0,0.0,-999.0,74,0.00,,,0.00,open2300 v1.10,2013-01-04 15:06:00,
2013-01-04 07:21:00,45.1,37.3,30.13,North,0,0.0,-999.0,74,0.00,,,0.00,open2300 v1.10,2013-01-04 15:21:00,
2013-01-04 07:36:00,45.1,37.3,30.13,North,0,0.0,-999.0,74,0.00,,,0.00,open2300 v1.10,2013-01-04 15:36:00,
2013-01-04 07:51:00,45.1,37.3,30.13,North,0,0.0,-999.0,74,0.00,,,0.00,open2300 v1.10,2013-01-04 15:51:00,
2013-01-04 08:06:00,45.1,37.3,30.14,North,0,0.0,-999.0,74,0.00,,,0.00,open2300 v1.10,2013-01-04 16:06:00,
2013-01-04 08:21:00,45.5,37.7,30.15,North,0,0.0,-999.0,74,0.00,,,0.00,open2300 v1.10,2013-01-04 16:21:00,
2013-01-04 08:36:00,45.7,37.9,30.15,North,0,0.0,-999.0,74,0.00,,,0.00,open2300 v1.10,2013-01-04 16:36:00,
2013-01-04 08:51:00,46.0,38.2,30.15,North,0,0.0,-999.0,74,0.00,,,0.00,open2300 v1.10,2013-01-04 16:51:00,
2013-01-04 09:06:00,46.0,38.2,30.16,North,0,0.0,-999.0,74,0.00,,,0.00,open2300 v1.10,2013-01-04 17:06:00,
2013-01-04 09:21:00,46.4,38.6,30.16,North,0,0.0,-999.0,74,0.00,,,0.00,open2300 v1.10,2013-01-04 17:21:00,
2013-01-04 09:36:00,46.8,38.9,30.17,North,0,0.0,-999.0,74,0.00,,,0.00,open2300 v1.10,2013-01-04 17:36:00,
2013-01-04 09:51:00,46.9,39.1,30.17,North,0,0.0,-999.0,74,0.00,,,0.00,open2300 v1.10,2013-01-04 17:51:00,
2013-01-04 10:06:00,47.5,39.2,30.16,North,0,0.0,-999.0,73,0.00,,,0.00,open2300 v1.10,2013-01-04 18:06:00,
2013-01-04 10:21:00,48.0,39.7,30.16,North,0,0.0,-999.0,73,0.00,,,0.00,open2300 v1.10,2013-01-04 18:21:00,
2013-01-04 10:36:00,48.6,40.2,30.15,North,0,0.0,-999.0,73,0.00,,,0.00,open2300 v1.10,2013-01-04 18:36:00,
2013-01-04 10:51:00,49.1,40.4,30.15,North,0,0.0,-999.0,72,0.00,,,0.00,open2300 v1.10,2013-01-04 18:51:00,
2013-01-04 11:06:00,49.6,41.0,30.15,North,0,0.0,-999.0,72,0.00,,,0.00,open2300 v1.10,2013-01-04 19:06:00,
2013-01-04 11:21:00,49.8,40.8,30.14,North,0,0.0,-999.0,71,0.00,,,0.00,open2300 v1.10,2013-01-04 19:21:00,
2013-01-04 11:36:00,50.4,41.3,30.12,North,0,0.0,-999.0,71,0.00,,,0.00,open2300 v1.10,2013-01-04 19:36:00,
2013-01-04 11:51:00,50.9,41.5,30.12,North,0,0.0,-999.0,70,0.00,,,0.00,open2300 v1.10,2013-01-04 19:51:00,
2013-01-04 12:06:00,51.1,41.3,30.11,North,0,0.0,-999.0,69,0.00,,,0.00,open2300 v1.10,2013-01-04 20:06:00,
2013-01-04 12:21:00,51.4,40.8,30.10,North,0,0.0,-999.0,67,0.00,,,0.00,open2300 v1.10,2013-01-04 20:21:00,
2013-01-04 12:36:00,51.6,40.2,30.10,North,0,0.0,-999.0,65,0.00,,,0.00,open2300 v1.10,2013-01-04 20:36:00,
2013-01-04 12:51:00,52.2,40.3,30.09,North,0,0.0,-999.0,64,0.00,,,0.00,open2300 v1.10,2013-01-04 20:51:00,
2013-01-04 13:06:00,52.5,40.6,30.08,North,0,0.0,-999.0,64,0.00,,,0.00,open2300 v1.10,2013-01-04 21:06:00,
2013-01-04 13:21:00,52.9,40.2,30.07,North,0,0.0,-999.0,62,0.00,,,0.00,open2300 v1.10,2013-01-04 21:21:00,
2013-01-04 13:36:00,53.4,39.9,30.07,North,0,0.0,-999.0,60,0.00,,,0.00,open2300 v1.10,2013-01-04 21:36:00,
2013-01-04 13:51:00,54.0,40.0,30.07,North,0,0.0,-999.0,59,0.00,,,0.00,open2300 v1.10,2013-01-04 21:51:00,
2013-01-04 14:06:00,54.1,39.7,30.06,North,0,0.0,-999.0,58,0.00,,,0.00,open2300 v1.10,2013-01-04 22:06:00,
2013-01-04 14:21:00,54.5,40.0,30.06,North,0,0.0,-999.0,58,0.00,,,0.00,open2300 v1.10,2013-01-04 22:21:00,
2013-01-04 14:36:00,54.5,39.5,30.06,North,0,0.0,-999.0,57,0.00,,,0.00,open2300 v1.10,2013-01-04 22:36:00,
2013-01-04 14:51:00,54.7,39.7,30.06,North,0,0.0,-999.0,57,0.00,,,0.00,open2300 v1.10,2013-01-04 22:51:00,
2013-01-04 15:06:00,55.0,40.0,30.06,North,0,0.0,-999.0,57,0.00,,,0.00,open2300 v1.10,2013-01-04 23:06:00,
2013-01-04 15:21:00,55.0,40.0,30.05,North,0,0.0,-999.0,57,0.00,,,0.00,open2300 v1.10,2013-01-04 23:21:00,
2013-01-04 15:36:00,55.0,40.0,30.05,North,0,0.0,-999.0,57,0.00,,,0.00,open2300 v1.10,2013-01-04 23:36:00,
2013-01-04 15:51:00,55.2,40.2,30.05,North,0,0.0,-999.0,57,0.00,,,0.00,open2300 v1.10,2013-01-04 23:51:00,
2013-01-04 16:06:00,55.2,39.7,30.05,North,0,0.0,-999.0,56,0.00,,,0.00,open2300 v1.10,2013-01-05 00:06:00,
2013-01-04 16:21:00,55.2,39.7,30.05,North,0,0.0,-999.0,56,0.00,,,0.00,open2300 v1.10,2013-01-05 00:21:00,
2013-01-04 16:36:00,55.6,40.0,30.05,North,0,0.0,-999.0,56,0.00,,,0.00,open2300 v1.10,2013-01-05 00:36:00,
2013-01-04 16:51:00,55.4,39.4,30.04,North,0,0.0,-999.0,55,0.00,,,0.00,open2300 v1.10,2013-01-05 00:51:00,
2013-01-04 17:06:00,55.0,39.5,30.04,North,0,0.0,-999.0,56,0.00,,,0.00,open2300 v1.10,2013-01-05 01:06:00,
2013-01-04 17:21:00,54.7,39.2,30.04,North,0,0.0,-999.0,56,0.00,,,0.00,open2300 v1.10,2013-01-05 01:21:00,
2013-01-04 17:36:00,54.3,38.9,30.05,North,0,0.0,-999.0,56,0.00,,,0.00,open2300 v1.10,2013-01-05 01:36:00,
2013-01-04 17:51:00,54.0,39.0,30.06,North,0,0.0,-999.0,57,0.00,,,0.00,open2300 v1.10,2013-01-05 01:51:00,
2013-01-04 18:06:00,53.4,38.5,30.06,North,0,0.0,-999.0,57,0.00,,,0.00,open2300 v1.10,2013-01-05 02:06:00,
2013-01-04 18:21:00,53.2,38.3,30.06,North,0,0.0,-999.0,57,0.00,,,0.00,open2300 v1.10,2013-01-05 02:21:00,
2013-01-04 18:36:00,52.7,37.8,30.07,North,0,0.0,-999.0,57,0.00,,,0.00,open2300 v1.10,2013-01-05 02:36:00,
2013-01-04 18:51:00,52.5,37.6,30.07,North,0,0.0,-999.0,57,0.00,,,0.00,open2300 v1.10,2013-01-05 02:51:00,
2013-01-04 19:06:00,52.2,37.7,30.07,North,0,0.0,-999.0,58,0.00,,,0.00,open2300 v1.10,2013-01-05 03:06:00,
2013-01-04 19:21:00,52.0,37.6,30.07,North,0,0.0,-999.0,58,0.00,,,0.00,open2300 v1.10,2013-01-05 03:21:00,
2013-01-04 19:36:00,51.8,37.4,30.07,North,0,0.0,-999.0,58,0.00,,,0.00,open2300 v1.10,2013-01-05 03:36:00,
2013-01-04 19:51:00,51.6,37.7,30.07,North,0,0.0,-999.0,59,0.00,,,0.00,open2300 v1.10,2013-01-05 03:51:00,
2013-01-04 20:06:00,51.4,37.5,30.07,North,0,0.0,-999.0,59,0.00,,,0.00,open2300 v1.10,2013-01-05 04:06:00,
2013-01-04 20:21:00,51.4,37.5,30.08,North,0,0.0,-999.0,59,0.00,,,0.00,open2300 v1.10,2013-01-05 04:21:00,
2013-01-04 20:36:00,51.3,37.4,30.08,North,0,0.0,-999.0,59,0.00,,,0.00,open2300 v1.10,2013-01-05 04:36:00,
2013-01-04 20:51:00,51.1,37.7,30.07,North,0,0.0,-999.0,60,0.00,,,0.00,open2300 v1.10,2013-01-05 04:51:00,
2013-01-04 21:06:00,50.9,37.5,30.08,North,0,0.0,-999.0,60,0.00,,,0.00,open2300 v1.10,2013-01-05 05:06:00,
2013-01-04 21:21:00,50.7,37.3,30.09,North,0,0.0,-999.0,60,0.00,,,0.00,open2300 v1.10,2013-01-05 05:21:00,
2013-01-04 21:36:00,50.7,37.7,30.08,North,0,0.0,-999.0,61,0.00,,,0.00,open2300 v1.10,2013-01-05 05:36:00,
2013-01-04 21:51:00,50.5,37.6,30.08,North,0,0.0,-999.0,61,0.00,,,0.00,open2300 v1.10,2013-01-05 05:51:00,
2013-01-04 22:06:00,50.4,37.4,30.09,North,0,0.0,-999.0,61,0.00,,,0.00,open2300 v1.10,2013-01-05 06:06:00,
2013-01-04 22:21:00,50.2,37.2,30.09,North,0,0.0,-999.0,61,0.00,,,0.00,open2300 v1.10,2013-01-05 06:21:00,
2013-01-04 22:36:00,49.8,37.3,30.10,North,0,0.0,-999.0,62,0.00,,,0.00,open2300 v1.10,2013-01-05 06:36:00,
2013-01-04 22:51:00,49.8,37.3,30.10,North,0,0.0,-999.0,62,0.00,,,0.00,open2300 v1.10,2013-01-05 06:51:00,
2013-01-04 23:06:00,49.8,37.3,30.10,North,0,0.0,-999.0,62,0.00,,,0.00,open2300 v1.10,2013-01-05 07:06:00,
2013-01-04 23:21:00,49.6,37.5,30.09,North,0,0.0,-999.0,63,0.00,,,0.00,open2300 v1.10,2013-01-05 07:21:00,
2013-01-04 23:36:00,49.3,37.2,30.09,North,0,0.0,-999.0,63,0.00,,,0.00,open2300 v1.10,2013-01-05 07:36:00,
2013-01-04 23:51:00,49.3,37.2,30.09,North,0,0.0,-999.0,63,0.00,,,0.00,open2300 v1.10,2013-01-05 07:51:00,